sensor_id;sensor_type;location;lat;lon;timestamp;P1;durP1;ratioP1;P2;durP2;ratioP2
33954;SDS011;20233;50.804;7.126;2022-08-24T00:00:08;6.07;;;2.83;;
33954;SDS011;20233;50.804;7.126;2022-08-24T00:02:40;3.97;;;2.60;;
33954;SDS011;20233;50.804;7.126;2022-08-24T00:05:06;4.80;;;2.75;;
33954;SDS011;20233;50.804;7.126;2022-08-24T00:07:32;5.13;;;2.90;;
33954;SDS011;20233;50.804;7.126;2022-08-24T00:09:59;7.88;;;3.03;;
33954;SDS011;20233;50.804;7.126;2022-08-24T00:12:26;7.93;;;3.03;;
33954;SDS011;20233;50.804;7.126;2022-08-24T00:14:52;8.20;;;3.30;;
33954;SDS011;20233;50.804;7.126;2022-08-24T00:17:18;5.30;;;3.22;;
33954;SDS011;20233;50.804;7.126;2022-08-24T00:19:44;5.30;;;2.70;;
33954;SDS011;20233;50.804;7.126;2022-08-24T00:22:11;5.90;;;2.80;;
33954;SDS011;20233;50.804;7.126;2022-08-24T00:24:37;10.18;;;3.42;;
33954;SDS011;20233;50.804;7.126;2022-08-24T00:27:03;5.15;;;3.00;;
33954;SDS011;20233;50.804;7.126;2022-08-24T00:29:30;6.88;;;3.00;;
33954;SDS011;20233;50.804;7.126;2022-08-24T00:31:56;5.57;;;2.75;;
33954;SDS011;20233;50.804;7.126;2022-08-24T00:34:22;6.75;;;3.03;;
33954;SDS011;20233;50.804;7.126;2022-08-24T00:36:47;6.07;;;3.78;;
33954;SDS011;20233;50.804;7.126;2022-08-24T00:39:13;7.43;;;3.40;;
33954;SDS011;20233;50.804;7.126;2022-08-24T00:41:40;7.55;;;3.97;;
33954;SDS011;20233;50.804;7.126;2022-08-24T00:44:07;5.78;;;3.20;;
33954;SDS011;20233;50.804;7.126;2022-08-24T00:49:48;8.10;;;3.30;;
33954;SDS011;20233;50.804;7.126;2022-08-24T00:54:52;6.07;;;3.03;;
33954;SDS011;20233;50.804;7.126;2022-08-24T00:57:23;4.82;;;3.20;;
33954;SDS011;20233;50.804;7.126;2022-08-24T00:59:53;9.37;;;3.83;;
33954;SDS011;20233;50.804;7.126;2022-08-24T01:02:23;6.20;;;2.80;;
33954;SDS011;20233;50.804;7.126;2022-08-24T01:04:55;5.75;;;3.70;;
33954;SDS011;20233;50.804;7.126;2022-08-24T01:07:24;5.90;;;3.13;;
33954;SDS011;20233;50.804;7.126;2022-08-24T01:09:51;6.68;;;3.00;;
33954;SDS011;20233;50.804;7.126;2022-08-24T01:12:20;7.90;;;3.88;;
33954;SDS011;20233;50.804;7.126;2022-08-24T01:14:46;5.05;;;3.08;;
33954;SDS011;20233;50.804;7.126;2022-08-24T01:17:12;7.57;;;3.40;;
33954;SDS011;20233;50.804;7.126;2022-08-24T01:19:57;4.85;;;2.97;;
33954;SDS011;20233;50.804;7.126;2022-08-24T01:25:12;6.10;;;2.95;;
33954;SDS011;20233;50.804;7.126;2022-08-24T01:27:38;7.90;;;3.30;;
33954;SDS011;20233;50.804;7.126;2022-08-24T01:30:05;7.43;;;4.00;;
33954;SDS011;20233;50.804;7.126;2022-08-24T01:32:34;12.23;;;3.15;;
33954;SDS011;20233;50.804;7.126;2022-08-24T01:34:59;7.90;;;3.45;;
33954;SDS011;20233;50.804;7.126;2022-08-24T01:37:25;6.13;;;3.38;;
33954;SDS011;20233;50.804;7.126;2022-08-24T01:39:52;6.60;;;2.88;;
33954;SDS011;20233;50.804;7.126;2022-08-24T01:42:20;7.38;;;3.25;;
33954;SDS011;20233;50.804;7.126;2022-08-24T01:44:46;5.53;;;3.03;;
33954;SDS011;20233;50.804;7.126;2022-08-24T01:47:12;8.65;;;3.10;;
33954;SDS011;20233;50.804;7.126;2022-08-24T01:49:41;7.70;;;3.55;;
33954;SDS011;20233;50.804;7.126;2022-08-24T01:52:11;4.50;;;2.97;;
33954;SDS011;20233;50.804;7.126;2022-08-24T01:54:39;6.45;;;3.10;;
33954;SDS011;20233;50.804;7.126;2022-08-24T01:57:05;5.90;;;3.40;;
33954;SDS011;20233;50.804;7.126;2022-08-24T01:59:31;5.45;;;3.15;;
33954;SDS011;20233;50.804;7.126;2022-08-24T02:02:00;5.32;;;3.83;;
33954;SDS011;20233;50.804;7.126;2022-08-24T02:04:55;4.65;;;2.55;;
33954;SDS011;20233;50.804;7.126;2022-08-24T02:07:21;13.13;;;4.28;;
33954;SDS011;20233;50.804;7.126;2022-08-24T02:09:48;5.90;;;3.20;;
33954;SDS011;20233;50.804;7.126;2022-08-24T02:12:14;5.93;;;2.80;;
33954;SDS011;20233;50.804;7.126;2022-08-24T02:14:39;7.15;;;2.97;;
33954;SDS011;20233;50.804;7.126;2022-08-24T02:17:06;6.57;;;3.25;;
33954;SDS011;20233;50.804;7.126;2022-08-24T02:19:32;5.97;;;3.60;;
33954;SDS011;20233;50.804;7.126;2022-08-24T02:21:58;6.40;;;3.50;;
33954;SDS011;20233;50.804;7.126;2022-08-24T02:24:25;6.07;;;3.85;;
33954;SDS011;20233;50.804;7.126;2022-08-24T02:26:51;5.57;;;3.13;;
33954;SDS011;20233;50.804;7.126;2022-08-24T02:29:17;5.45;;;3.30;;
33954;SDS011;20233;50.804;7.126;2022-08-24T02:31:43;3.92;;;3.08;;
33954;SDS011;20233;50.804;7.126;2022-08-24T02:34:08;5.45;;;3.47;;
33954;SDS011;20233;50.804;7.126;2022-08-24T02:36:34;6.72;;;4.00;;
33954;SDS011;20233;50.804;7.126;2022-08-24T02:39:00;4.63;;;4.03;;
33954;SDS011;20233;50.804;7.126;2022-08-24T02:41:27;6.43;;;3.50;;
33954;SDS011;20233;50.804;7.126;2022-08-24T02:43:53;6.65;;;3.83;;
33954;SDS011;20233;50.804;7.126;2022-08-24T02:46:20;4.95;;;3.13;;
33954;SDS011;20233;50.804;7.126;2022-08-24T02:48:47;6.55;;;3.65;;
33954;SDS011;20233;50.804;7.126;2022-08-24T02:51:21;5.60;;;3.65;;
33954;SDS011;20233;50.804;7.126;2022-08-24T02:53:48;6.00;;;3.45;;
33954;SDS011;20233;50.804;7.126;2022-08-24T02:56:14;5.90;;;3.30;;
33954;SDS011;20233;50.804;7.126;2022-08-24T02:58:41;5.80;;;3.30;;
33954;SDS011;20233;50.804;7.126;2022-08-24T03:01:07;6.50;;;3.10;;
33954;SDS011;20233;50.804;7.126;2022-08-24T03:03:34;7.45;;;3.38;;
33954;SDS011;20233;50.804;7.126;2022-08-24T03:05:59;6.00;;;3.00;;
33954;SDS011;20233;50.804;7.126;2022-08-24T03:08:25;5.82;;;3.35;;
33954;SDS011;20233;50.804;7.126;2022-08-24T03:10:51;7.15;;;3.55;;
33954;SDS011;20233;50.804;7.126;2022-08-24T03:13:16;6.10;;;3.65;;
33954;SDS011;20233;50.804;7.126;2022-08-24T03:15:42;7.75;;;3.65;;
33954;SDS011;20233;50.804;7.126;2022-08-24T03:18:08;7.72;;;3.85;;
33954;SDS011;20233;50.804;7.126;2022-08-24T03:20:34;6.38;;;3.03;;
33954;SDS011;20233;50.804;7.126;2022-08-24T03:22:59;5.85;;;3.00;;
33954;SDS011;20233;50.804;7.126;2022-08-24T03:25:25;6.72;;;3.00;;
33954;SDS011;20233;50.804;7.126;2022-08-24T03:27:52;5.53;;;2.63;;
33954;SDS011;20233;50.804;7.126;2022-08-24T03:30:18;7.30;;;3.30;;
33954;SDS011;20233;50.804;7.126;2022-08-24T03:32:44;4.72;;;3.42;;
33954;SDS011;20233;50.804;7.126;2022-08-24T03:35:10;5.28;;;3.55;;
33954;SDS011;20233;50.804;7.126;2022-08-24T03:37:36;4.72;;;3.30;;
33954;SDS011;20233;50.804;7.126;2022-08-24T03:40:03;6.82;;;3.03;;
33954;SDS011;20233;50.804;7.126;2022-08-24T03:42:29;6.75;;;3.60;;
33954;SDS011;20233;50.804;7.126;2022-08-24T03:44:55;6.97;;;3.03;;
33954;SDS011;20233;50.804;7.126;2022-08-24T03:47:21;6.47;;;3.40;;
33954;SDS011;20233;50.804;7.126;2022-08-24T03:49:47;5.88;;;3.05;;
33954;SDS011;20233;50.804;7.126;2022-08-24T03:52:13;6.95;;;3.80;;
33954;SDS011;20233;50.804;7.126;2022-08-24T03:54:38;4.03;;;3.20;;
33954;SDS011;20233;50.804;7.126;2022-08-24T03:57:04;5.50;;;2.58;;
33954;SDS011;20233;50.804;7.126;2022-08-24T03:59:30;7.55;;;3.05;;
33954;SDS011;20233;50.804;7.126;2022-08-24T04:01:55;5.10;;;3.17;;
33954;SDS011;20233;50.804;7.126;2022-08-24T04:04:22;7.47;;;3.33;;
33954;SDS011;20233;50.804;7.126;2022-08-24T04:06:48;7.25;;;3.20;;
33954;SDS011;20233;50.804;7.126;2022-08-24T04:09:13;5.70;;;3.50;;
33954;SDS011;20233;50.804;7.126;2022-08-24T04:11:39;6.45;;;3.45;;
33954;SDS011;20233;50.804;7.126;2022-08-24T04:14:10;4.53;;;3.53;;
33954;SDS011;20233;50.804;7.126;2022-08-24T04:16:36;6.30;;;3.78;;
33954;SDS011;20233;50.804;7.126;2022-08-24T04:19:02;6.45;;;3.50;;
33954;SDS011;20233;50.804;7.126;2022-08-24T04:21:30;7.28;;;4.07;;
33954;SDS011;20233;50.804;7.126;2022-08-24T04:23:59;9.00;;;3.55;;
33954;SDS011;20233;50.804;7.126;2022-08-24T04:26:27;5.25;;;3.08;;
33954;SDS011;20233;50.804;7.126;2022-08-24T04:28:54;5.45;;;3.55;;
33954;SDS011;20233;50.804;7.126;2022-08-24T04:31:20;5.07;;;3.45;;
33954;SDS011;20233;50.804;7.126;2022-08-24T04:33:47;7.22;;;3.80;;
33954;SDS011;20233;50.804;7.126;2022-08-24T04:36:17;5.68;;;3.47;;
33954;SDS011;20233;50.804;7.126;2022-08-24T04:38:44;8.80;;;3.05;;
33954;SDS011;20233;50.804;7.126;2022-08-24T04:41:10;5.47;;;3.35;;
33954;SDS011;20233;50.804;7.126;2022-08-24T04:43:37;7.25;;;3.60;;
33954;SDS011;20233;50.804;7.126;2022-08-24T04:46:07;7.57;;;3.35;;
33954;SDS011;20233;50.804;7.126;2022-08-24T04:48:33;6.47;;;4.47;;
33954;SDS011;20233;50.804;7.126;2022-08-24T04:51:03;6.72;;;3.72;;
33954;SDS011;20233;50.804;7.126;2022-08-24T04:53:31;6.25;;;3.53;;
33954;SDS011;20233;50.804;7.126;2022-08-24T04:55:58;10.90;;;4.05;;
33954;SDS011;20233;50.804;7.126;2022-08-24T04:58:25;4.85;;;3.50;;
33954;SDS011;20233;50.804;7.126;2022-08-24T05:00:52;5.22;;;3.25;;
33954;SDS011;20233;50.804;7.126;2022-08-24T05:03:19;7.53;;;3.92;;
33954;SDS011;20233;50.804;7.126;2022-08-24T05:05:45;7.57;;;3.28;;
33954;SDS011;20233;50.804;7.126;2022-08-24T05:08:13;8.75;;;3.55;;
33954;SDS011;20233;50.804;7.126;2022-08-24T05:10:41;6.25;;;3.08;;
33954;SDS011;20233;50.804;7.126;2022-08-24T05:13:10;4.57;;;2.78;;
33954;SDS011;20233;50.804;7.126;2022-08-24T05:15:39;7.53;;;3.80;;
33954;SDS011;20233;50.804;7.126;2022-08-24T05:18:06;5.47;;;3.70;;
33954;SDS011;20233;50.804;7.126;2022-08-24T05:20:33;6.13;;;4.03;;
33954;SDS011;20233;50.804;7.126;2022-08-24T05:23:02;6.35;;;3.60;;
33954;SDS011;20233;50.804;7.126;2022-08-24T05:25:27;8.38;;;3.95;;
33954;SDS011;20233;50.804;7.126;2022-08-24T05:27:53;6.25;;;3.38;;
33954;SDS011;20233;50.804;7.126;2022-08-24T05:30:19;9.85;;;3.42;;
33954;SDS011;20233;50.804;7.126;2022-08-24T05:32:45;8.70;;;3.80;;
33954;SDS011;20233;50.804;7.126;2022-08-24T05:35:10;7.90;;;3.90;;
33954;SDS011;20233;50.804;7.126;2022-08-24T05:37:37;7.22;;;3.80;;
33954;SDS011;20233;50.804;7.126;2022-08-24T05:40:04;7.15;;;3.83;;
33954;SDS011;20233;50.804;7.126;2022-08-24T05:42:32;4.07;;;3.25;;
33954;SDS011;20233;50.804;7.126;2022-08-24T05:44:59;16.02;;;3.75;;
33954;SDS011;20233;50.804;7.126;2022-08-24T05:47:24;6.53;;;3.47;;
33954;SDS011;20233;50.804;7.126;2022-08-24T05:49:50;11.05;;;3.33;;
33954;SDS011;20233;50.804;7.126;2022-08-24T05:52:18;6.82;;;3.50;;
33954;SDS011;20233;50.804;7.126;2022-08-24T05:54:45;11.55;;;4.05;;
33954;SDS011;20233;50.804;7.126;2022-08-24T05:57:16;9.52;;;3.50;;
33954;SDS011;20233;50.804;7.126;2022-08-24T05:59:42;6.75;;;3.45;;
33954;SDS011;20233;50.804;7.126;2022-08-24T06:02:08;7.03;;;3.35;;
33954;SDS011;20233;50.804;7.126;2022-08-24T06:04:33;8.23;;;3.63;;
33954;SDS011;20233;50.804;7.126;2022-08-24T06:07:02;9.32;;;3.38;;
33954;SDS011;20233;50.804;7.126;2022-08-24T06:09:28;8.00;;;3.70;;
33954;SDS011;20233;50.804;7.126;2022-08-24T06:11:54;7.25;;;3.15;;
33954;SDS011;20233;50.804;7.126;2022-08-24T06:14:19;6.93;;;2.85;;
33954;SDS011;20233;50.804;7.126;2022-08-24T06:16:45;6.68;;;3.15;;
33954;SDS011;20233;50.804;7.126;2022-08-24T06:19:12;6.60;;;3.03;;
33954;SDS011;20233;50.804;7.126;2022-08-24T06:21:41;4.45;;;2.45;;
33954;SDS011;20233;50.804;7.126;2022-08-24T06:24:08;7.18;;;2.50;;
33954;SDS011;20233;50.804;7.126;2022-08-24T06:26:34;5.32;;;2.70;;
33954;SDS011;20233;50.804;7.126;2022-08-24T06:29:19;5.80;;;3.03;;
33954;SDS011;20233;50.804;7.126;2022-08-24T06:31:46;4.90;;;2.58;;
33954;SDS011;20233;50.804;7.126;2022-08-24T06:34:13;5.07;;;2.78;;
33954;SDS011;20233;50.804;7.126;2022-08-24T06:36:41;4.70;;;2.45;;
33954;SDS011;20233;50.804;7.126;2022-08-24T06:39:07;4.85;;;3.38;;
33954;SDS011;20233;50.804;7.126;2022-08-24T06:41:34;8.55;;;2.40;;
33954;SDS011;20233;50.804;7.126;2022-08-24T06:44:00;4.93;;;2.63;;
33954;SDS011;20233;50.804;7.126;2022-08-24T06:46:26;7.68;;;2.65;;
33954;SDS011;20233;50.804;7.126;2022-08-24T06:48:52;5.15;;;2.30;;
33954;SDS011;20233;50.804;7.126;2022-08-24T06:51:18;6.15;;;2.60;;
33954;SDS011;20233;50.804;7.126;2022-08-24T06:53:46;5.00;;;2.53;;
33954;SDS011;20233;50.804;7.126;2022-08-24T06:56:13;8.32;;;2.80;;
33954;SDS011;20233;50.804;7.126;2022-08-24T06:58:38;7.65;;;2.60;;
33954;SDS011;20233;50.804;7.126;2022-08-24T07:01:24;4.95;;;2.35;;
33954;SDS011;20233;50.804;7.126;2022-08-24T07:03:50;6.30;;;2.40;;
33954;SDS011;20233;50.804;7.126;2022-08-24T07:06:16;6.72;;;2.47;;
33954;SDS011;20233;50.804;7.126;2022-08-24T07:08:43;6.70;;;2.45;;
33954;SDS011;20233;50.804;7.126;2022-08-24T07:11:09;7.13;;;2.53;;
33954;SDS011;20233;50.804;7.126;2022-08-24T07:13:35;7.90;;;2.60;;
33954;SDS011;20233;50.804;7.126;2022-08-24T07:16:01;6.55;;;2.70;;
33954;SDS011;20233;50.804;7.126;2022-08-24T07:18:27;9.38;;;3.25;;
33954;SDS011;20233;50.804;7.126;2022-08-24T07:20:53;9.02;;;2.78;;
33954;SDS011;20233;50.804;7.126;2022-08-24T07:23:19;7.13;;;2.40;;
33954;SDS011;20233;50.804;7.126;2022-08-24T07:25:46;15.13;;;3.13;;
33954;SDS011;20233;50.804;7.126;2022-08-24T07:28:12;7.35;;;3.30;;
33954;SDS011;20233;50.804;7.126;2022-08-24T07:30:39;8.48;;;2.70;;
33954;SDS011;20233;50.804;7.126;2022-08-24T07:33:06;9.88;;;2.33;;
33954;SDS011;20233;50.804;7.126;2022-08-24T07:35:33;6.05;;;2.72;;
33954;SDS011;20233;50.804;7.126;2022-08-24T07:37:59;6.50;;;1.98;;
33954;SDS011;20233;50.804;7.126;2022-08-24T07:40:28;7.53;;;2.75;;
33954;SDS011;20233;50.804;7.126;2022-08-24T07:42:55;5.65;;;2.17;;
33954;SDS011;20233;50.804;7.126;2022-08-24T07:45:22;9.20;;;2.72;;
33954;SDS011;20233;50.804;7.126;2022-08-24T07:47:48;8.93;;;2.42;;
33954;SDS011;20233;50.804;7.126;2022-08-24T07:50:14;4.40;;;1.98;;
33954;SDS011;20233;50.804;7.126;2022-08-24T07:52:41;7.30;;;2.42;;
33954;SDS011;20233;50.804;7.126;2022-08-24T07:55:07;6.38;;;2.20;;
33954;SDS011;20233;50.804;7.126;2022-08-24T07:57:35;9.23;;;3.00;;
33954;SDS011;20233;50.804;7.126;2022-08-24T08:00:03;5.93;;;1.98;;
33954;SDS011;20233;50.804;7.126;2022-08-24T08:02:32;8.80;;;2.70;;
33954;SDS011;20233;50.804;7.126;2022-08-24T08:04:58;6.97;;;2.28;;
33954;SDS011;20233;50.804;7.126;2022-08-24T08:07:23;5.28;;;2.22;;
33954;SDS011;20233;50.804;7.126;2022-08-24T08:09:49;8.88;;;2.40;;
33954;SDS011;20233;50.804;7.126;2022-08-24T08:12:16;7.90;;;2.40;;
33954;SDS011;20233;50.804;7.126;2022-08-24T08:14:42;5.18;;;1.90;;
33954;SDS011;20233;50.804;7.126;2022-08-24T08:17:08;5.85;;;2.35;;
33954;SDS011;20233;50.804;7.126;2022-08-24T08:19:33;5.55;;;2.08;;
33954;SDS011;20233;50.804;7.126;2022-08-24T08:21:59;6.60;;;2.30;;
33954;SDS011;20233;50.804;7.126;2022-08-24T08:24:43;6.75;;;2.05;;
33954;SDS011;20233;50.804;7.126;2022-08-24T08:27:09;5.45;;;1.90;;
33954;SDS011;20233;50.804;7.126;2022-08-24T08:29:36;4.80;;;2.30;;
33954;SDS011;20233;50.804;7.126;2022-08-24T08:32:04;6.93;;;2.35;;
33954;SDS011;20233;50.804;7.126;2022-08-24T08:34:31;7.93;;;2.13;;
33954;SDS011;20233;50.804;7.126;2022-08-24T08:36:57;6.38;;;2.03;;
33954;SDS011;20233;50.804;7.126;2022-08-24T08:39:24;5.90;;;1.85;;
33954;SDS011;20233;50.804;7.126;2022-08-24T08:42:02;7.95;;;2.00;;
33954;SDS011;20233;50.804;7.126;2022-08-24T08:47:03;5.63;;;1.52;;
33954;SDS011;20233;50.804;7.126;2022-08-24T08:52:24;6.50;;;2.03;;
33954;SDS011;20233;50.804;7.126;2022-08-24T08:55:25;10.07;;;2.58;;
33954;SDS011;20233;50.804;7.126;2022-08-24T08:57:55;8.52;;;2.63;;
33954;SDS011;20233;50.804;7.126;2022-08-24T09:06:25;5.13;;;2.33;;
33954;SDS011;20233;50.804;7.126;2022-08-24T09:09:18;7.28;;;2.28;;
33954;SDS011;20233;50.804;7.126;2022-08-24T09:17:35;4.47;;;1.70;;
33954;SDS011;20233;50.804;7.126;2022-08-24T09:23:09;4.60;;;1.95;;
33954;SDS011;20233;50.804;7.126;2022-08-24T09:25:41;4.90;;;1.73;;
33954;SDS011;20233;50.804;7.126;2022-08-24T09:28:20;5.00;;;2.30;;
33954;SDS011;20233;50.804;7.126;2022-08-24T09:31:04;5.82;;;2.10;;
33954;SDS011;20233;50.804;7.126;2022-08-24T09:42:06;3.15;;;1.35;;
33954;SDS011;20233;50.804;7.126;2022-08-24T09:45:14;5.00;;;1.70;;
33954;SDS011;20233;50.804;7.126;2022-08-24T10:12:53;6.18;;;2.17;;
33954;SDS011;20233;50.804;7.126;2022-08-24T10:15:43;6.13;;;3.47;;
33954;SDS011;20233;50.804;7.126;2022-08-24T10:21:30;4.22;;;1.80;;
33954;SDS011;20233;50.804;7.126;2022-08-24T10:24:38;5.72;;;1.63;;
33954;SDS011;20233;50.804;7.126;2022-08-24T10:33:30;6.07;;;1.85;;
33954;SDS011;20233;50.804;7.126;2022-08-24T10:36:37;4.38;;;1.98;;
33954;SDS011;20233;50.804;7.126;2022-08-24T10:42:19;4.32;;;1.92;;
33954;SDS011;20233;50.804;7.126;2022-08-24T10:45:23;4.30;;;1.57;;
33954;SDS011;20233;50.804;7.126;2022-08-24T10:50:52;5.75;;;1.60;;
33954;SDS011;20233;50.804;7.126;2022-08-24T10:53:27;8.00;;;1.80;;
33954;SDS011;20233;50.804;7.126;2022-08-24T11:01:12;6.45;;;1.58;;
33954;SDS011;20233;50.804;7.126;2022-08-24T11:06:32;4.43;;;1.30;;
33954;SDS011;20233;50.804;7.126;2022-08-24T11:09:04;2.83;;;1.15;;
33954;SDS011;20233;50.804;7.126;2022-08-24T11:11:42;3.38;;;1.55;;
33954;SDS011;20233;50.804;7.126;2022-08-24T11:16:51;4.72;;;1.25;;
33954;SDS011;20233;50.804;7.126;2022-08-24T11:21:54;3.92;;;1.40;;
33954;SDS011;20233;50.804;7.126;2022-08-24T11:24:41;4.18;;;1.20;;
33954;SDS011;20233;50.804;7.126;2022-08-24T11:32:33;4.60;;;1.02;;
33954;SDS011;20233;50.804;7.126;2022-08-24T11:37:40;2.40;;;1.33;;
33954;SDS011;20233;50.804;7.126;2022-08-24T11:40:06;3.85;;;1.20;;
33954;SDS011;20233;50.804;7.126;2022-08-24T11:42:55;5.70;;;1.65;;
33954;SDS011;20233;50.804;7.126;2022-08-24T11:45:48;4.53;;;1.00;;
33954;SDS011;20233;50.804;7.126;2022-08-24T11:51:40;4.57;;;1.38;;
33954;SDS011;20233;50.804;7.126;2022-08-24T11:59:44;4.45;;;0.90;;
33954;SDS011;20233;50.804;7.126;2022-08-24T12:10:31;3.42;;;0.90;;
33954;SDS011;20233;50.804;7.126;2022-08-24T12:13:24;3.45;;;0.80;;
33954;SDS011;20233;50.804;7.126;2022-08-24T12:15:53;4.15;;;1.10;;
33954;SDS011;20233;50.804;7.126;2022-08-24T12:18:47;3.47;;;0.68;;
33954;SDS011;20233;50.804;7.126;2022-08-24T12:21:24;4.28;;;0.65;;
33954;SDS011;20233;50.804;7.126;2022-08-24T12:27:23;4.03;;;1.05;;
33954;SDS011;20233;50.804;7.126;2022-08-24T12:29:56;2.78;;;1.20;;
33954;SDS011;20233;50.804;7.126;2022-08-24T12:32:35;3.15;;;1.20;;
33954;SDS011;20233;50.804;7.126;2022-08-24T12:35:38;2.20;;;1.10;;
33954;SDS011;20233;50.804;7.126;2022-08-24T12:40:39;2.00;;;0.80;;
33954;SDS011;20233;50.804;7.126;2022-08-24T12:43:37;3.38;;;0.95;;
33954;SDS011;20233;50.804;7.126;2022-08-24T12:46:08;2.78;;;1.23;;
33954;SDS011;20233;50.804;7.126;2022-08-24T12:48:44;3.40;;;0.93;;
33954;SDS011;20233;50.804;7.126;2022-08-24T13:00:38;3.35;;;0.85;;
33954;SDS011;20233;50.804;7.126;2022-08-24T13:03:22;4.80;;;0.93;;
33954;SDS011;20233;50.804;7.126;2022-08-24T13:05:57;4.35;;;1.20;;
33954;SDS011;20233;50.804;7.126;2022-08-24T13:08:32;2.58;;;0.85;;
33954;SDS011;20233;50.804;7.126;2022-08-24T13:11:10;2.20;;;1.05;;
33954;SDS011;20233;50.804;7.126;2022-08-24T13:13:46;4.45;;;1.10;;
33954;SDS011;20233;50.804;7.126;2022-08-24T13:19:11;2.33;;;1.13;;
33954;SDS011;20233;50.804;7.126;2022-08-24T13:21:42;2.38;;;0.90;;
33954;SDS011;20233;50.804;7.126;2022-08-24T13:26:57;5.20;;;0.90;;
33954;SDS011;20233;50.804;7.126;2022-08-24T13:29:35;3.10;;;1.27;;
33954;SDS011;20233;50.804;7.126;2022-08-24T13:32:03;3.83;;;1.38;;
33954;SDS011;20233;50.804;7.126;2022-08-24T13:34:39;3.58;;;1.23;;
33954;SDS011;20233;50.804;7.126;2022-08-24T13:37:11;2.42;;;0.88;;
33954;SDS011;20233;50.804;7.126;2022-08-24T13:39:54;2.03;;;0.82;;
33954;SDS011;20233;50.804;7.126;2022-08-24T13:51:10;3.95;;;1.05;;
33954;SDS011;20233;50.804;7.126;2022-08-24T13:58:45;3.72;;;1.20;;
33954;SDS011;20233;50.804;7.126;2022-08-24T14:06:55;3.63;;;0.75;;
33954;SDS011;20233;50.804;7.126;2022-08-24T14:12:22;3.72;;;1.08;;
33954;SDS011;20233;50.804;7.126;2022-08-24T14:17:46;4.68;;;0.98;;
33954;SDS011;20233;50.804;7.126;2022-08-24T14:20:29;2.85;;;1.25;;
33954;SDS011;20233;50.804;7.126;2022-08-24T14:39:42;4.00;;;1.27;;
33954;SDS011;20233;50.804;7.126;2022-08-24T14:42:43;2.92;;;0.90;;
33954;SDS011;20233;50.804;7.126;2022-08-24T14:45:41;3.42;;;1.15;;
33954;SDS011;20233;50.804;7.126;2022-08-24T14:48:14;4.18;;;1.20;;
33954;SDS011;20233;50.804;7.126;2022-08-24T14:51:37;4.55;;;0.88;;
33954;SDS011;20233;50.804;7.126;2022-08-24T14:53:53;2.97;;;1.33;;
33954;SDS011;20233;50.804;7.126;2022-08-24T14:59:10;5.90;;;1.10;;
33954;SDS011;20233;50.804;7.126;2022-08-24T15:04:46;2.33;;;0.95;;
33954;SDS011;20233;50.804;7.126;2022-08-24T15:09:45;4.22;;;1.10;;
33954;SDS011;20233;50.804;7.126;2022-08-24T15:14:45;2.65;;;0.98;;
33954;SDS011;20233;50.804;7.126;2022-08-24T15:17:16;4.18;;;0.90;;
33954;SDS011;20233;50.804;7.126;2022-08-24T15:19:58;4.68;;;0.88;;
33954;SDS011;20233;50.804;7.126;2022-08-24T15:25:10;3.70;;;0.98;;
33954;SDS011;20233;50.804;7.126;2022-08-24T15:27:47;2.88;;;0.70;;
33954;SDS011;20233;50.804;7.126;2022-08-24T15:35:40;2.28;;;1.10;;
33954;SDS011;20233;50.804;7.126;2022-08-24T15:38:15;3.30;;;0.90;;
33954;SDS011;20233;50.804;7.126;2022-08-24T15:40:50;4.95;;;1.05;;
33954;SDS011;20233;50.804;7.126;2022-08-24T15:43:43;2.33;;;0.73;;
33954;SDS011;20233;50.804;7.126;2022-08-24T15:46:12;3.30;;;0.77;;
33954;SDS011;20233;50.804;7.126;2022-08-24T15:48:48;3.22;;;0.60;;
33954;SDS011;20233;50.804;7.126;2022-08-24T15:54:14;5.40;;;0.80;;
33954;SDS011;20233;50.804;7.126;2022-08-24T15:56:47;2.63;;;0.80;;
33954;SDS011;20233;50.804;7.126;2022-08-24T15:59:23;3.33;;;0.77;;
33954;SDS011;20233;50.804;7.126;2022-08-24T16:04:51;2.03;;;0.90;;
33954;SDS011;20233;50.804;7.126;2022-08-24T16:07:58;3.88;;;1.02;;
33954;SDS011;20233;50.804;7.126;2022-08-24T16:16:02;1.90;;;0.70;;
33954;SDS011;20233;50.804;7.126;2022-08-24T16:18:47;3.00;;;0.95;;
33954;SDS011;20233;50.804;7.126;2022-08-24T16:24:08;3.65;;;0.70;;
33954;SDS011;20233;50.804;7.126;2022-08-24T16:34:39;2.22;;;0.80;;
33954;SDS011;20233;50.804;7.126;2022-08-24T16:37:06;2.17;;;0.70;;
33954;SDS011;20233;50.804;7.126;2022-08-24T16:39:31;3.85;;;0.57;;
33954;SDS011;20233;50.804;7.126;2022-08-24T16:41:58;4.35;;;1.08;;
33954;SDS011;20233;50.804;7.126;2022-08-24T16:44:30;2.60;;;0.90;;
33954;SDS011;20233;50.804;7.126;2022-08-24T16:47:03;2.15;;;1.10;;
33954;SDS011;20233;50.804;7.126;2022-08-24T16:49:30;4.50;;;1.02;;
33954;SDS011;20233;50.804;7.126;2022-08-24T16:51:58;2.63;;;1.00;;
33954;SDS011;20233;50.804;7.126;2022-08-24T16:54:26;4.93;;;1.10;;
33954;SDS011;20233;50.804;7.126;2022-08-24T16:56:52;1.80;;;0.98;;
33954;SDS011;20233;50.804;7.126;2022-08-24T16:59:19;3.92;;;1.00;;
33954;SDS011;20233;50.804;7.126;2022-08-24T17:01:52;2.33;;;0.90;;
33954;SDS011;20233;50.804;7.126;2022-08-24T17:04:17;3.65;;;1.08;;
33954;SDS011;20233;50.804;7.126;2022-08-24T17:06:43;3.95;;;1.23;;
33954;SDS011;20233;50.804;7.126;2022-08-24T17:09:09;2.67;;;0.88;;
33954;SDS011;20233;50.804;7.126;2022-08-24T17:11:35;2.55;;;1.13;;
33954;SDS011;20233;50.804;7.126;2022-08-24T17:14:01;1.90;;;0.88;;
33954;SDS011;20233;50.804;7.126;2022-08-24T17:16:27;4.13;;;0.95;;
33954;SDS011;20233;50.804;7.126;2022-08-24T17:18:53;1.58;;;0.80;;
33954;SDS011;20233;50.804;7.126;2022-08-24T17:21:21;4.00;;;0.75;;
33954;SDS011;20233;50.804;7.126;2022-08-24T17:23:47;3.78;;;1.05;;
33954;SDS011;20233;50.804;7.126;2022-08-24T17:26:13;3.08;;;1.33;;
33954;SDS011;20233;50.804;7.126;2022-08-24T17:28:41;3.90;;;1.10;;
33954;SDS011;20233;50.804;7.126;2022-08-24T17:31:08;3.60;;;0.90;;
33954;SDS011;20233;50.804;7.126;2022-08-24T17:33:35;2.72;;;0.88;;
33954;SDS011;20233;50.804;7.126;2022-08-24T17:36:01;5.55;;;1.02;;
33954;SDS011;20233;50.804;7.126;2022-08-24T17:38:29;2.67;;;1.10;;
33954;SDS011;20233;50.804;7.126;2022-08-24T17:40:55;3.65;;;1.05;;
33954;SDS011;20233;50.804;7.126;2022-08-24T17:43:21;2.10;;;1.10;;
33954;SDS011;20233;50.804;7.126;2022-08-24T17:45:48;2.17;;;0.90;;
33954;SDS011;20233;50.804;7.126;2022-08-24T17:48:15;7.45;;;1.30;;
33954;SDS011;20233;50.804;7.126;2022-08-24T17:50:46;2.97;;;1.08;;
33954;SDS011;20233;50.804;7.126;2022-08-24T17:53:12;6.57;;;1.40;;
33954;SDS011;20233;50.804;7.126;2022-08-24T17:55:37;1.67;;;0.77;;
33954;SDS011;20233;50.804;7.126;2022-08-24T17:58:03;3.55;;;0.88;;
33954;SDS011;20233;50.804;7.126;2022-08-24T18:00:28;3.22;;;1.13;;
33954;SDS011;20233;50.804;7.126;2022-08-24T18:02:54;2.38;;;1.30;;
33954;SDS011;20233;50.804;7.126;2022-08-24T18:05:19;3.53;;;1.13;;
33954;SDS011;20233;50.804;7.126;2022-08-24T18:07:47;4.00;;;1.50;;
33954;SDS011;20233;50.804;7.126;2022-08-24T18:10:14;5.63;;;1.77;;
33954;SDS011;20233;50.804;7.126;2022-08-24T18:12:44;5.43;;;1.10;;
33954;SDS011;20233;50.804;7.126;2022-08-24T18:15:10;4.43;;;1.30;;
33954;SDS011;20233;50.804;7.126;2022-08-24T18:17:41;8.93;;;1.67;;
33954;SDS011;20233;50.804;7.126;2022-08-24T18:20:09;5.78;;;1.45;;
33954;SDS011;20233;50.804;7.126;2022-08-24T18:22:37;6.10;;;1.50;;
33954;SDS011;20233;50.804;7.126;2022-08-24T18:25:08;3.97;;;1.35;;
33954;SDS011;20233;50.804;7.126;2022-08-24T18:27:35;7.63;;;1.58;;
33954;SDS011;20233;50.804;7.126;2022-08-24T18:30:03;3.95;;;1.10;;
33954;SDS011;20233;50.804;7.126;2022-08-24T18:32:30;4.63;;;1.40;;
33954;SDS011;20233;50.804;7.126;2022-08-24T18:34:56;4.43;;;1.70;;
33954;SDS011;20233;50.804;7.126;2022-08-24T18:37:21;2.38;;;1.33;;
33954;SDS011;20233;50.804;7.126;2022-08-24T18:39:48;3.50;;;1.85;;
33954;SDS011;20233;50.804;7.126;2022-08-24T18:42:14;4.47;;;1.65;;
33954;SDS011;20233;50.804;7.126;2022-08-24T18:44:40;5.50;;;1.83;;